Terminal Aerodrome Forecast
Issued by NWS

Home | Current Version | Previous Version | Text Only | Print | Product List | Glossary On
Versions: 1 2 3 4 5 6 7 8 9 10 11 12
000
FTUS42 KTAE 242320
TAFVLD
TAF
KVLD 242320Z 2500/2524 00000KT P6SM SCT200
     FM251000 15004KT P6SM BKN015
     FM251500 21013G18KT P6SM BKN035 BKN150=

USA.gov is the U.S. government's official web portal to all federal, state and local government web resources and services.